Terminal Aerodrome Forecast
Issued by NWS Cleveland, OH

Home | Current Version | Previous Version | Graphics & Text | Print | Product List | Glossary Off
Versions: 1 2 3 4 5 6 7 8 9 10 11 12 13 14 15 16 17 18 19 20

000
FTUS41 KCLE 061700
TAFYNG
TAF
KYNG 061724Z 0618/0718 33005KT P6SM SCT035
     FM062300 01004KT P6SM SKC
     FM070600 00000KT 4SM BR SKC
     FM071400 00000KT P6SM SKC=

USA.gov is the U.S. government's official web portal to all federal, state and local government web resources and services.